createdAt,value
2022-09-07T00:00:35.738Z,101091.53
2022-09-07T00:03:09.141Z,101084.84
2022-09-07T00:05:47.044Z,101093.09
2022-09-07T00:08:24.378Z,101080.88
2022-09-07T00:11:05.001Z,101069.53
2022-09-07T00:13:39.742Z,101054.41
2022-09-07T00:16:22.410Z,101058.22
2022-09-07T00:18:57.040Z,101054.00
2022-09-07T00:21:29.847Z,101057.66
2022-09-07T00:24:02.512Z,101054.31
2022-09-07T00:26:35.351Z,101057.34
2022-09-07T00:29:07.973Z,101054.84
2022-09-07T00:31:40.535Z,101051.41
2022-09-07T00:34:13.005Z,101054.19
2022-09-07T00:36:45.501Z,101047.25
2022-09-07T00:39:18.232Z,101042.03
2022-09-07T00:41:50.668Z,101042.06
2022-09-07T00:45:00.537Z,101037.66
2022-09-07T00:48:11.115Z,101020.84
2022-09-07T00:50:48.837Z,101015.63
2022-09-07T00:53:34.657Z,101004.13
2022-09-07T00:56:08.146Z,100998.75
2022-09-07T00:58:43.635Z,100998.00
2022-09-07T01:01:17.232Z,101003.34
2022-09-07T01:03:52.131Z,101001.66
2022-09-07T01:06:36.075Z,101001.66
2022-09-07T01:09:12.929Z,101018.69
2022-09-07T01:11:50.691Z,101004.56
2022-09-07T01:14:28.919Z,101012.59
2022-09-07T01:17:26.101Z,101011.75
2022-09-07T01:20:17.544Z,101006.50
2022-09-07T01:23:21.700Z,101012.88
2022-09-07T01:26:28.621Z,101020.91
2022-09-07T01:29:17.980Z,101007.69
2022-09-07T01:32:10.198Z,101012.16
2022-09-07T01:34:46.567Z,101014.00
2022-09-07T01:37:50.037Z,101007.78
2022-09-07T01:40:39.013Z,101019.28
2022-09-07T01:43:21.470Z,101020.97
2022-09-07T01:45:57.139Z,101012.09
2022-09-07T01:48:33.770Z,101010.34
2022-09-07T01:51:12.232Z,101014.75
2022-09-07T01:53:52.920Z,101009.50
2022-09-07T01:56:38.038Z,101014.00
2022-09-07T01:59:20.304Z,101025.69
2022-09-07T02:02:03.318Z,101019.56
2022-09-07T02:04:57.151Z,101019.63
2022-09-07T02:07:43.721Z,101011.75
2022-09-07T02:10:37.970Z,101015.50
2022-09-07T02:13:24.035Z,101007.66
2022-09-07T02:16:19.361Z,101014.03
2022-09-07T02:18:59.144Z,101015.94
2022-09-07T02:21:37.653Z,101009.84
2022-09-07T02:24:26.309Z,101005.44
2022-09-07T02:27:00.959Z,101010.00
2022-09-07T02:29:33.471Z,101013.66
2022-09-07T02:32:06.173Z,101012.91
2022-09-07T02:34:38.750Z,101005.88
2022-09-07T02:37:13.862Z,101009.53
2022-09-07T02:39:47.816Z,101018.47
2022-09-07T02:42:20.420Z,101012.38
2022-09-07T02:44:53.485Z,101014.16
2022-09-07T02:47:35.012Z,101010.72
2022-09-07T02:50:26.289Z,101002.81
2022-09-07T02:53:17.450Z,101010.03
2022-09-07T02:56:07.625Z,101013.63
2022-09-07T02:58:39.983Z,101017.25
2022-09-07T03:01:40.371Z,101012.78
2022-09-07T03:04:28.616Z,101015.47
2022-09-07T03:07:26.087Z,101018.91
2022-09-07T03:10:01.764Z,101015.22
2022-09-07T03:12:48.031Z,101014.94
2022-09-07T03:15:23.650Z,101008.34
2022-09-07T03:17:56.230Z,101012.63
2022-09-07T03:20:28.685Z,101000.88
2022-09-07T03:23:01.101Z,100996.28
2022-09-07T03:25:33.584Z,100992.69
2022-09-07T03:28:06.569Z,100992.66
2022-09-07T03:30:43.962Z,101009.38
2022-09-07T03:33:17.246Z,101017.13
2022-09-07T03:35:59.074Z,101003.53
2022-09-07T03:38:31.603Z,101003.41
2022-09-07T03:41:06.519Z,100997.03
2022-09-07T03:43:38.934Z,101004.91
2022-09-07T03:46:11.589Z,101009.22
2022-09-07T03:48:44.147Z,101009.16
2022-09-07T03:51:18.293Z,101005.56
2022-09-07T03:53:51.304Z,101000.34
2022-09-07T03:56:24.915Z,101000.25
2022-09-07T03:58:57.460Z,101004.63
2022-09-07T04:01:30.097Z,100986.91
2022-09-07T04:04:02.832Z,100978.94
2022-09-07T04:06:35.398Z,100968.34
2022-09-07T04:09:11.768Z,100962.19
2022-09-07T04:11:44.223Z,100967.53
2022-09-07T04:14:16.721Z,100964.91
2022-09-07T04:16:49.566Z,100960.50
2022-09-07T04:19:22.419Z,100951.66
2022-09-07T04:21:54.838Z,100954.34
2022-09-07T04:24:27.433Z,100964.47
2022-09-07T04:27:00.218Z,100955.53
2022-09-07T04:29:32.674Z,100968.09
2022-09-07T04:32:05.199Z,100987.69
2022-09-07T04:34:37.608Z,100981.63
2022-09-07T04:37:10.034Z,100979.22
2022-09-07T04:39:42.633Z,100981.94
2022-09-07T04:42:15.120Z,100978.41
2022-09-07T04:44:50.595Z,100976.59
2022-09-07T04:47:23.431Z,100985.38
2022-09-07T04:49:55.937Z,100976.31
2022-09-07T04:52:28.354Z,100977.09
2022-09-07T04:55:00.757Z,100976.06
2022-09-07T04:57:33.189Z,100978.59
2022-09-07T05:00:12.974Z,100977.59
2022-09-07T05:02:45.484Z,100981.84
2022-09-07T05:05:18.008Z,100971.06
2022-09-07T05:07:50.418Z,100970.94
2022-09-07T05:10:22.876Z,100968.34
2022-09-07T05:12:55.293Z,100955.13
2022-09-07T05:15:30.610Z,100960.50
2022-09-07T05:18:03.581Z,100964.97
2022-09-07T05:20:36.018Z,100963.16
2022-09-07T05:23:08.776Z,100966.88
2022-09-07T05:25:45.020Z,100974.13
2022-09-07T05:28:19.538Z,100972.38
2022-09-07T05:36:46.080Z,100974.19
2022-09-07T05:39:20.984Z,100977.69
2022-09-07T05:41:53.973Z,100979.47
2022-09-07T05:47:14.624Z,100983.66
2022-09-07T05:49:47.047Z,100981.72
2022-09-07T05:52:19.489Z,100977.16
2022-09-07T05:54:54.330Z,100978.72
2022-09-07T05:57:29.062Z,100985.75
2022-09-07T06:00:01.792Z,100996.31
2022-09-07T06:02:39.509Z,100996.28
2022-09-07T06:05:12.356Z,100996.31
2022-09-07T06:07:48.063Z,100995.47
2022-09-07T06:13:12.990Z,101003.28
2022-09-07T06:15:45.688Z,101003.19
2022-09-07T06:18:18.338Z,100996.78
2022-09-07T06:20:50.755Z,100998.44
2022-09-07T06:23:23.182Z,101004.56
2022-09-07T06:25:55.585Z,101000.81
2022-09-07T06:28:39.438Z,101003.22
2022-09-07T06:31:14.361Z,101007.25
2022-09-07T06:33:47.786Z,101013.97
2022-09-07T06:36:22.748Z,101018.25
2022-09-07T06:38:58.949Z,101017.00
2022-09-07T06:44:24.020Z,101022.72
2022-09-07T06:47:04.205Z,101019.50
2022-09-07T06:49:37.209Z,101020.50
2022-09-07T06:52:09.689Z,101025.56
2022-09-07T06:57:30.620Z,101029.28
2022-09-07T07:00:03.744Z,101026.19
2022-09-07T07:02:36.277Z,101031.41
2022-09-07T07:05:09.161Z,101029.94
2022-09-07T07:07:41.561Z,101018.78
2022-09-07T07:10:14.000Z,101032.66
2022-09-07T07:12:46.470Z,101035.88
2022-09-07T07:15:19.043Z,101035.47
2022-09-07T07:17:58.198Z,101027.81
2022-09-07T07:20:35.529Z,101034.13
2022-09-07T07:23:08.304Z,101032.97
2022-09-07T07:25:40.750Z,101035.94
2022-09-07T07:31:09.889Z,101036.44
2022-09-07T07:33:48.282Z,101036.06
2022-09-07T07:36:22.850Z,101047.13
2022-09-07T07:44:23.797Z,101049.72
2022-09-07T07:46:56.236Z,101049.88
2022-09-07T07:49:28.670Z,101054.94
2022-09-07T07:54:53.400Z,101058.53
2022-09-07T07:57:25.931Z,101060.97
2022-09-07T07:59:58.575Z,101067.00
2022-09-07T08:02:31.130Z,101063.41
2022-09-07T08:05:03.713Z,101066.00
2022-09-07T08:07:36.254Z,101061.44
2022-09-07T08:10:10.114Z,101056.09
2022-09-07T08:12:42.771Z,101068.91
2022-09-07T08:15:15.149Z,101072.91
2022-09-07T08:17:48.134Z,101068.53
2022-09-07T08:20:21.007Z,101072.34
2022-09-07T08:22:53.372Z,101075.66
2022-09-07T08:25:25.748Z,101068.09
2022-09-07T08:27:58.117Z,101070.09
2022-09-07T08:30:30.841Z,101072.63
2022-09-07T08:33:03.271Z,101070.59
2022-09-07T08:35:35.810Z,101073.75
2022-09-07T08:38:08.260Z,101075.72
2022-09-07T08:40:40.735Z,101079.00
2022-09-07T08:43:27.306Z,101079.16
2022-09-07T08:46:06.649Z,101086.13
2022-09-07T08:48:40.201Z,101084.28
2022-09-07T08:51:22.334Z,101084.50
2022-09-07T08:53:56.838Z,101083.50
2022-09-07T08:57:20.622Z,101087.31
2022-09-07T08:59:42.893Z,101079.56
2022-09-07T09:05:37.025Z,101081.16
2022-09-07T09:06:11.217Z,101078.28
2022-09-07T09:08:15.322Z,101090.63
2022-09-07T09:10:50.925Z,101084.66
2022-09-07T09:13:58.282Z,101087.78
2022-09-07T09:16:38.096Z,101089.22
2022-09-07T09:19:23.823Z,101085.25
2022-09-07T09:22:28.327Z,101079.25
2022-09-07T09:25:07.228Z,101082.09
2022-09-07T09:27:39.750Z,101084.94
2022-09-07T09:30:17.787Z,101082.28
2022-09-07T09:33:13.564Z,101078.94
2022-09-07T09:35:51.316Z,101086.00
2022-09-07T09:38:34.933Z,101086.81
2022-09-07T09:41:10.097Z,101084.22
2022-09-07T09:43:48.188Z,101077.78
2022-09-07T09:46:23.417Z,101085.44
2022-09-07T09:49:01.236Z,101080.06
2022-09-07T09:54:44.763Z,101084.56
2022-09-07T09:57:38.123Z,101084.72
2022-09-07T10:00:23.662Z,101088.22
2022-09-07T10:06:07.419Z,101079.59
2022-09-07T10:08:40.364Z,101073.84
2022-09-07T10:11:14.116Z,101082.91
2022-09-07T10:13:57.773Z,101065.50
2022-09-07T10:16:42.780Z,101077.00
2022-09-07T10:19:29.678Z,101066.59
2022-09-07T10:22:36.404Z,101062.13
2022-09-07T10:25:45.213Z,101062.44
2022-09-07T10:28:23.894Z,101066.97
2022-09-07T10:31:21.182Z,101067.19
2022-09-07T10:37:04.801Z,101061.22
2022-09-07T10:40:02.230Z,101059.47
2022-09-07T10:43:20.547Z,101054.47
2022-09-07T10:46:02.519Z,101048.97
2022-09-07T10:48:43.105Z,101050.59
2022-09-07T10:51:32.096Z,101050.97
2022-09-07T10:54:36.246Z,101041.44
2022-09-07T10:57:27.779Z,101038.75
2022-09-07T11:00:12.944Z,101045.63
2022-09-07T11:06:20.070Z,101054.28
2022-09-07T11:09:21.962Z,101041.97
2022-09-07T11:12:01.949Z,101040.38
2022-09-07T11:14:44.483Z,101036.47
2022-09-07T11:17:28.921Z,101031.28
2022-09-07T11:20:12.717Z,101026.63
2022-09-07T11:22:57.521Z,101030.34
2022-09-07T11:25:47.217Z,101033.06
2022-09-07T11:28:34.669Z,101033.09
2022-09-07T11:31:22.041Z,101034.81
2022-09-07T11:34:25.261Z,101023.56
2022-09-07T11:37:11.699Z,101021.16
2022-09-07T11:39:58.663Z,101029.16
2022-09-07T11:42:43.527Z,101031.56
2022-09-07T11:45:16.288Z,101030.75
2022-09-07T11:48:01.788Z,101022.91
2022-09-07T11:50:39.319Z,101017.53
2022-09-07T11:53:22.449Z,101018.34
2022-09-07T11:55:59.950Z,101026.22
2022-09-07T11:58:56.255Z,101027.75
2022-09-07T12:02:06.241Z,101024.78
2022-09-07T12:04:56.738Z,101018.66
2022-09-07T12:07:44.124Z,101017.72
2022-09-07T12:10:54.447Z,101020.88
2022-09-07T12:13:38.840Z,101011.13
2022-09-07T12:16:39.399Z,101007.59
2022-09-07T12:19:18.230Z,101011.06
2022-09-07T12:21:53.378Z,101006.53
2022-09-07T12:24:32.343Z,100995.16
2022-09-07T12:27:20.077Z,101005.22
2022-09-07T12:29:59.424Z,101000.38
2022-09-07T12:32:55.769Z,101004.94
2022-09-07T12:35:42.647Z,100990.63
2022-09-07T12:38:18.107Z,100994.81
2022-09-07T12:41:02.385Z,100993.53
2022-09-07T12:43:43.618Z,100984.16
2022-09-07T12:46:35.428Z,100978.34
2022-09-07T12:49:26.612Z,100992.88
2022-09-07T12:52:46.967Z,100980.59
2022-09-07T12:55:28.284Z,100984.91
2022-09-07T12:58:20.677Z,100982.09
2022-09-07T13:01:13.353Z,100982.94
2022-09-07T13:04:23.089Z,100987.50
2022-09-07T13:07:13.860Z,100970.00
2022-09-07T13:10:16.676Z,100967.19
2022-09-07T13:12:55.265Z,100966.19
2022-09-07T13:15:38.901Z,100963.69
2022-09-07T13:18:29.647Z,100962.22
2022-09-07T13:21:08.095Z,100950.19
2022-09-07T13:23:48.845Z,100948.22
2022-09-07T13:27:05.614Z,100958.44
2022-09-07T13:29:40.831Z,100956.91
2022-09-07T13:33:07.919Z,100955.94
2022-09-07T13:35:24.401Z,100955.81
2022-09-07T13:38:00.628Z,100953.50
2022-09-07T13:40:45.149Z,100942.09
2022-09-07T13:43:23.469Z,100943.53
2022-09-07T13:46:01.454Z,100939.97
2022-09-07T13:48:49.486Z,100929.47
2022-09-07T13:51:31.740Z,100930.31
2022-09-07T13:54:19.340Z,100932.97
2022-09-07T13:57:01.470Z,100917.53
2022-09-07T13:59:35.157Z,100922.31
2022-09-07T14:02:22.795Z,100928.25
2022-09-07T14:04:56.567Z,100923.13
2022-09-07T14:07:31.180Z,100917.81
2022-09-07T14:10:09.483Z,100920.34
2022-09-07T14:12:54.288Z,100916.31
2022-09-07T14:15:37.024Z,100911.63
2022-09-07T14:18:14.991Z,100916.72
2022-09-07T14:20:52.967Z,100909.66
2022-09-07T14:23:30.843Z,100912.81
2022-09-07T14:26:23.081Z,100918.53
2022-09-07T14:28:57.623Z,100906.22
2022-09-07T14:31:31.176Z,100912.75
2022-09-07T14:34:03.914Z,100911.25
2022-09-07T14:36:45.221Z,100907.53
2022-09-07T14:39:22.244Z,100905.31
2022-09-07T14:41:55.448Z,100901.38
2022-09-07T14:44:31.640Z,100906.47
2022-09-07T14:47:11.600Z,100903.88
2022-09-07T14:49:50.873Z,100901.16
2022-09-07T14:52:34.928Z,100900.25
2022-09-07T14:55:28.652Z,100904.88
2022-09-07T14:58:13.002Z,100908.66
2022-09-07T15:01:37.023Z,100902.53
2022-09-07T15:03:39.836Z,100901.13
2022-09-07T15:07:00.890Z,100899.13
2022-09-07T15:09:07.057Z,100896.03
2022-09-07T15:11:39.537Z,100887.22
2022-09-07T15:14:20.205Z,100891.63
2022-09-07T15:19:53.138Z,100895.69
2022-09-07T15:22:25.492Z,100895.19
2022-09-07T15:24:57.842Z,100887.06
2022-09-07T15:27:30.402Z,100878.69
2022-09-07T15:30:02.775Z,100876.22
2022-09-07T15:32:35.396Z,100878.91
2022-09-07T15:35:08.895Z,100878.13
2022-09-07T15:40:58.081Z,100880.75
2022-09-07T15:43:37.594Z,100881.22
2022-09-07T15:46:10.550Z,100872.63
2022-09-07T15:48:53.529Z,100874.09
2022-09-07T15:54:20.699Z,100866.63
2022-09-07T15:59:46.071Z,100864.41
2022-09-07T16:05:10.980Z,100866.13
2022-09-07T16:10:36.268Z,100874.00
2022-09-07T16:13:11.393Z,100871.03
2022-09-07T16:15:48.863Z,100869.59
2022-09-07T16:18:21.328Z,100861.81
2022-09-07T16:20:53.732Z,100857.28
2022-09-07T16:23:26.228Z,100857.88
2022-09-07T16:26:01.535Z,100858.00
2022-09-07T16:28:35.463Z,100857.09
2022-09-07T16:31:11.998Z,100852.94
2022-09-07T16:33:44.618Z,100842.84
2022-09-07T16:36:17.712Z,100843.59
2022-09-07T16:38:58.973Z,100853.53
2022-09-07T16:41:33.269Z,100859.94
2022-09-07T16:44:05.836Z,100863.28
2022-09-07T16:46:38.459Z,100851.47
2022-09-07T16:49:11.784Z,100854.44
2022-09-07T16:51:45.656Z,100857.25
2022-09-07T16:54:18.105Z,100850.59
2022-09-07T16:56:52.476Z,100853.69
2022-09-07T16:59:26.699Z,100854.50
2022-09-07T17:01:59.179Z,100851.06
2022-09-07T17:04:31.665Z,100842.75
2022-09-07T17:07:04.150Z,100845.06
2022-09-07T17:09:36.876Z,100842.69
2022-09-07T17:12:12.323Z,100847.06
2022-09-07T17:14:44.676Z,100841.31
2022-09-07T17:17:18.561Z,100837.72
2022-09-07T17:19:52.905Z,100821.06
2022-09-07T17:22:26.380Z,100826.44
2022-09-07T17:24:58.768Z,100833.63
2022-09-07T17:27:31.765Z,100827.41
2022-09-07T17:30:06.745Z,100839.22
2022-09-07T17:32:39.515Z,100826.41
2022-09-07T17:35:11.973Z,100821.84
2022-09-07T17:37:44.314Z,100823.72
2022-09-07T17:40:17.165Z,100820.97
2022-09-07T17:45:41.999Z,100832.69
2022-09-07T17:48:14.592Z,100828.03
2022-09-07T17:50:46.957Z,100828.84
2022-09-07T17:53:19.329Z,100836.78
2022-09-07T17:55:51.783Z,100837.63
2022-09-07T17:58:24.573Z,100827.53
2022-09-07T18:01:05.906Z,100825.75
2022-09-07T18:03:38.665Z,100831.63
2022-09-07T18:06:11.884Z,100834.78
2022-09-07T18:08:44.289Z,100830.78
2022-09-07T18:14:13.468Z,100836.47
2022-09-07T18:16:49.374Z,100829.09
2022-09-07T18:19:22.684Z,100825.91
2022-09-07T18:21:55.095Z,100825.59
2022-09-07T18:24:28.057Z,100815.44
2022-09-07T18:27:01.177Z,100806.97
2022-09-07T18:29:34.516Z,100816.53
2022-09-07T18:32:09.182Z,100821.53
2022-09-07T18:34:44.799Z,100820.47
2022-09-07T18:37:19.655Z,100816.66
2022-09-07T18:39:52.272Z,100820.94
2022-09-07T18:42:24.718Z,100825.16
2022-09-07T18:47:49.636Z,100824.44
2022-09-07T18:50:23.195Z,100820.47
2022-09-07T18:53:04.125Z,100827.25
2022-09-07T18:55:40.539Z,100823.34
2022-09-07T18:58:15.171Z,100829.00
2022-09-07T19:00:49.991Z,100822.16
2022-09-07T19:03:22.415Z,100827.59
2022-09-07T19:06:03.673Z,100827.88
2022-09-07T19:08:38.056Z,100828.97
2022-09-07T19:11:11.677Z,100828.31
2022-09-07T19:13:44.965Z,100827.59
2022-09-07T19:16:19.219Z,100831.31
2022-09-07T19:18:57.825Z,100831.41
2022-09-07T19:21:32.569Z,100831.31
2022-09-07T19:24:12.748Z,100821.47
2022-09-07T19:26:47.765Z,100832.88
2022-09-07T19:29:21.411Z,100822.84
2022-09-07T19:32:07.444Z,100825.28
2022-09-07T19:34:42.590Z,100824.13
2022-09-07T19:37:14.956Z,100824.91
2022-09-07T19:39:49.133Z,100836.34
2022-09-07T19:42:22.415Z,100828.22
2022-09-07T19:44:54.860Z,100834.28
2022-09-07T19:47:27.270Z,100829.78
2022-09-07T19:49:59.692Z,100824.56
2022-09-07T19:52:32.677Z,100831.00
2022-09-07T19:55:05.673Z,100826.66
2022-09-07T19:57:38.089Z,100826.91
2022-09-07T20:00:11.376Z,100822.66
2022-09-07T20:02:43.733Z,100811.41
2022-09-07T20:05:17.716Z,100806.41
2022-09-07T20:07:50.333Z,100813.75
2022-09-07T20:10:23.087Z,100801.53
2022-09-07T20:12:55.449Z,100798.94
2022-09-07T20:15:28.039Z,100798.94
2022-09-07T20:18:00.617Z,100801.53
2022-09-07T20:20:34.424Z,100806.72
2022-09-07T20:23:07.831Z,100793.25
2022-09-07T20:25:40.367Z,100788.75
2022-09-07T20:28:13.862Z,100783.38
2022-09-07T20:30:46.275Z,100780.69
2022-09-07T20:33:19.245Z,100774.47
2022-09-07T20:35:51.654Z,100766.50
2022-09-07T20:38:23.983Z,100764.94
2022-09-07T20:40:58.643Z,100760.78
2022-09-07T20:43:31.081Z,100755.75
2022-09-07T20:46:03.457Z,100748.91
2022-09-07T20:48:37.272Z,100749.06
2022-09-07T20:51:13.432Z,100743.97
2022-09-07T20:53:46.736Z,100744.81
2022-09-07T20:56:21.545Z,100734.19
2022-09-07T20:59:02.407Z,100735.94
2022-09-07T21:01:35.181Z,100738.69
2022-09-07T21:04:07.859Z,100736.88
2022-09-07T21:06:40.401Z,100736.09
2022-09-07T21:09:12.791Z,100736.94
2022-09-07T21:11:49.295Z,100733.31
2022-09-07T21:14:22.850Z,100736.00
2022-09-07T21:16:55.251Z,100738.50
2022-09-07T21:19:27.684Z,100738.34
2022-09-07T21:22:00.025Z,100737.41
2022-09-07T21:24:32.397Z,100743.47
2022-09-07T21:27:04.786Z,100743.31
2022-09-07T21:29:37.158Z,100744.97
2022-09-07T21:32:09.512Z,100743.13
2022-09-07T21:34:41.868Z,100747.50
2022-09-07T21:37:14.199Z,100748.34
2022-09-07T21:39:46.634Z,100748.34
2022-09-07T21:42:19.335Z,100744.72
2022-09-07T21:44:51.665Z,100747.31
2022-09-07T21:47:24.631Z,100750.00
2022-09-07T21:49:57.044Z,100750.84
2022-09-07T21:52:29.431Z,100745.50
2022-09-07T21:55:01.840Z,100749.06
2022-09-07T21:57:34.244Z,100749.22
2022-09-07T22:00:08.810Z,100736.66
2022-09-07T22:02:41.252Z,100731.22
2022-09-07T22:05:13.628Z,100730.28
2022-09-07T22:07:46.076Z,100732.75
2022-09-07T22:10:18.435Z,100726.44
2022-09-07T22:12:50.828Z,100730.69
2022-09-07T22:15:23.163Z,100727.00
2022-09-07T22:17:56.095Z,100718.84
2022-09-07T22:20:28.460Z,100722.41
2022-09-07T22:23:00.815Z,100734.94
2022-09-07T22:25:34.735Z,100727.75
2022-09-07T22:28:07.133Z,100732.34
2022-09-07T22:30:39.476Z,100726.09
2022-09-07T22:33:11.814Z,100728.88
2022-09-07T22:35:44.199Z,100725.44
2022-09-07T22:38:16.569Z,100716.50
2022-09-07T22:40:48.911Z,100720.91
2022-09-07T22:43:21.275Z,100714.78
2022-09-07T22:45:53.607Z,100715.72
2022-09-07T22:48:27.183Z,100711.31
2022-09-07T22:51:00.765Z,100716.78
2022-09-07T22:53:36.522Z,100718.59
2022-09-07T22:56:11.858Z,100713.31
2022-09-07T22:58:54.411Z,100719.56
2022-09-07T23:01:28.825Z,100714.09
2022-09-07T23:04:01.993Z,100715.91
2022-09-07T23:06:37.636Z,100715.03
2022-09-07T23:09:15.691Z,100704.41
2022-09-07T23:11:48.775Z,100715.91
2022-09-07T23:14:22.213Z,100724.97
2022-09-07T23:16:54.684Z,100712.53
2022-09-07T23:19:27.581Z,100718.34
2022-09-07T23:22:00.608Z,100713.28
2022-09-07T23:24:33.321Z,100723.53
2022-09-07T23:27:06.580Z,100717.94
2022-09-07T23:29:39.033Z,100721.81
2022-09-07T23:32:11.423Z,100714.28
2022-09-07T23:34:43.805Z,100717.28
2022-09-07T23:37:16.177Z,100712.25
2022-09-07T23:39:48.572Z,100712.59
2022-09-07T23:42:21.031Z,100704.97
2022-09-07T23:44:53.384Z,100706.09
2022-09-07T23:47:26.480Z,100691.97
2022-09-07T23:49:58.864Z,100687.72
2022-09-07T23:52:31.634Z,100694.97
2022-09-07T23:55:04.520Z,100691.44
2022-09-07T23:57:38.212Z,100688.94
